sensor_id;sensor_type;location;lat;lon;timestamp;P1;durP1;ratioP1;P2;durP2;ratioP2
17564;SDS011;62994;52.126;5.596;2023-04-30T00:02:20;9.02;;;7.07;;
17564;SDS011;62994;52.126;5.596;2023-04-30T00:04:47;6.72;;;6.13;;
17564;SDS011;62994;52.126;5.596;2023-04-30T00:07:14;7.13;;;6.15;;
17564;SDS011;62994;52.126;5.596;2023-04-30T00:09:41;7.32;;;6.63;;
17564;SDS011;62994;52.126;5.596;2023-04-30T00:12:08;13.02;;;6.65;;
17564;SDS011;62994;52.126;5.596;2023-04-30T00:14:35;7.05;;;6.45;;
17564;SDS011;62994;52.126;5.596;2023-04-30T00:17:03;7.47;;;6.78;;
17564;SDS011;62994;52.126;5.596;2023-04-30T00:19:30;6.65;;;6.22;;
17564;SDS011;62994;52.126;5.596;2023-04-30T00:21:58;8.50;;;7.80;;
17564;SDS011;62994;52.126;5.596;2023-04-30T00:24:25;8.05;;;7.35;;
17564;SDS011;62994;52.126;5.596;2023-04-30T00:26:52;7.75;;;6.85;;
17564;SDS011;62994;52.126;5.596;2023-04-30T00:29:19;8.10;;;7.40;;
17564;SDS011;62994;52.126;5.596;2023-04-30T00:31:46;7.40;;;6.65;;
17564;SDS011;62994;52.126;5.596;2023-04-30T00:34:15;7.18;;;6.57;;
17564;SDS011;62994;52.126;5.596;2023-04-30T00:36:42;6.40;;;6.00;;
17564;SDS011;62994;52.126;5.596;2023-04-30T00:39:09;6.97;;;6.18;;
17564;SDS011;62994;52.126;5.596;2023-04-30T00:41:36;7.45;;;6.75;;
17564;SDS011;62994;52.126;5.596;2023-04-30T00:44:04;7.00;;;6.40;;
17564;SDS011;62994;52.126;5.596;2023-04-30T00:46:31;6.88;;;6.22;;
17564;SDS011;62994;52.126;5.596;2023-04-30T00:48:58;7.28;;;6.68;;
17564;SDS011;62994;52.126;5.596;2023-04-30T00:51:30;7.63;;;6.70;;
17564;SDS011;62994;52.126;5.596;2023-04-30T00:53:58;7.78;;;6.22;;
17564;SDS011;62994;52.126;5.596;2023-04-30T00:56:27;7.88;;;6.60;;
17564;SDS011;62994;52.126;5.596;2023-04-30T00:58:55;7.25;;;6.60;;
17564;SDS011;62994;52.126;5.596;2023-04-30T01:01:22;7.43;;;6.70;;
17564;SDS011;62994;52.126;5.596;2023-04-30T01:03:50;6.43;;;6.03;;
17564;SDS011;62994;52.126;5.596;2023-04-30T01:06:17;6.82;;;6.32;;
17564;SDS011;62994;52.126;5.596;2023-04-30T01:08:46;7.40;;;6.90;;
17564;SDS011;62994;52.126;5.596;2023-04-30T01:11:16;7.30;;;6.47;;
17564;SDS011;62994;52.126;5.596;2023-04-30T01:13:52;6.25;;;5.75;;
17564;SDS011;62994;52.126;5.596;2023-04-30T01:16:27;6.22;;;5.75;;
17564;SDS011;62994;52.126;5.596;2023-04-30T01:18:59;7.70;;;7.00;;
17564;SDS011;62994;52.126;5.596;2023-04-30T01:21:35;7.45;;;6.75;;
17564;SDS011;62994;52.126;5.596;2023-04-30T01:27:12;7.28;;;6.68;;
17564;SDS011;62994;52.126;5.596;2023-04-30T01:29:50;7.63;;;7.00;;
17564;SDS011;62994;52.126;5.596;2023-04-30T01:32:19;7.63;;;6.93;;
17564;SDS011;62994;52.126;5.596;2023-04-30T01:34:46;7.45;;;6.75;;
17564;SDS011;62994;52.126;5.596;2023-04-30T01:37:15;6.60;;;6.10;;
17564;SDS011;62994;52.126;5.596;2023-04-30T01:39:50;7.63;;;6.80;;
17564;SDS011;62994;52.126;5.596;2023-04-30T01:42:29;7.80;;;7.20;;
17564;SDS011;62994;52.126;5.596;2023-04-30T01:45:11;6.40;;;5.97;;
17564;SDS011;62994;52.126;5.596;2023-04-30T01:47:49;7.20;;;6.50;;
17564;SDS011;62994;52.126;5.596;2023-04-30T01:50:24;7.00;;;6.60;;
17564;SDS011;62994;52.126;5.596;2023-04-30T01:52:57;6.65;;;6.05;;
17564;SDS011;62994;52.126;5.596;2023-04-30T01:55:27;7.03;;;6.53;;
17564;SDS011;62994;52.126;5.596;2023-04-30T01:57:58;7.78;;;6.88;;
17564;SDS011;62994;52.126;5.596;2023-04-30T02:00:27;7.20;;;6.70;;
17564;SDS011;62994;52.126;5.596;2023-04-30T02:02:55;7.00;;;6.28;;
17564;SDS011;62994;52.126;5.596;2023-04-30T02:05:23;6.72;;;6.13;;
17564;SDS011;62994;52.126;5.596;2023-04-30T02:07:50;6.93;;;6.28;;
17564;SDS011;62994;52.126;5.596;2023-04-30T02:10:21;7.40;;;6.70;;
17564;SDS011;62994;52.126;5.596;2023-04-30T02:12:49;7.28;;;6.63;;
17564;SDS011;62994;52.126;5.596;2023-04-30T02:15:16;6.80;;;6.10;;
17564;SDS011;62994;52.126;5.596;2023-04-30T02:17:44;6.55;;;6.07;;
17564;SDS011;62994;52.126;5.596;2023-04-30T02:20:11;6.38;;;5.70;;
17564;SDS011;62994;52.126;5.596;2023-04-30T02:22:38;7.60;;;6.55;;
17564;SDS011;62994;52.126;5.596;2023-04-30T02:25:05;8.50;;;6.30;;
17564;SDS011;62994;52.126;5.596;2023-04-30T02:27:33;7.47;;;6.88;;
17564;SDS011;62994;52.126;5.596;2023-04-30T02:30:00;6.80;;;6.20;;
17564;SDS011;62994;52.126;5.596;2023-04-30T02:32:28;8.57;;;7.25;;
17564;SDS011;62994;52.126;5.596;2023-04-30T02:34:56;7.25;;;6.57;;
17564;SDS011;62994;52.126;5.596;2023-04-30T02:37:23;7.00;;;6.50;;
17564;SDS011;62994;52.126;5.596;2023-04-30T02:39:50;6.85;;;6.35;;
17564;SDS011;62994;52.126;5.596;2023-04-30T02:42:18;7.07;;;6.28;;
17564;SDS011;62994;52.126;5.596;2023-04-30T02:44:45;6.13;;;5.70;;
17564;SDS011;62994;52.126;5.596;2023-04-30T02:47:12;6.38;;;6.00;;
17564;SDS011;62994;52.126;5.596;2023-04-30T02:49:39;6.78;;;6.18;;
17564;SDS011;62994;52.126;5.596;2023-04-30T02:52:07;5.90;;;5.25;;
17564;SDS011;62994;52.126;5.596;2023-04-30T02:54:34;6.68;;;5.78;;
17564;SDS011;62994;52.126;5.596;2023-04-30T02:57:02;7.43;;;6.40;;
17564;SDS011;62994;52.126;5.596;2023-04-30T02:59:29;6.20;;;5.80;;
17564;SDS011;62994;52.126;5.596;2023-04-30T03:01:56;6.15;;;5.47;;
17564;SDS011;62994;52.126;5.596;2023-04-30T03:04:23;5.70;;;5.20;;
17564;SDS011;62994;52.126;5.596;2023-04-30T03:06:50;13.27;;;6.03;;
17564;SDS011;62994;52.126;5.596;2023-04-30T03:09:18;5.78;;;5.38;;
17564;SDS011;62994;52.126;5.596;2023-04-30T03:11:46;6.78;;;5.28;;
17564;SDS011;62994;52.126;5.596;2023-04-30T03:14:13;4.72;;;4.43;;
17564;SDS011;62994;52.126;5.596;2023-04-30T03:16:40;5.57;;;5.18;;
17564;SDS011;62994;52.126;5.596;2023-04-30T03:19:07;5.00;;;4.70;;
17564;SDS011;62994;52.126;5.596;2023-04-30T03:21:34;4.90;;;4.60;;
17564;SDS011;62994;52.126;5.596;2023-04-30T03:24:01;4.55;;;4.32;;
17564;SDS011;62994;52.126;5.596;2023-04-30T03:26:29;4.75;;;4.45;;
17564;SDS011;62994;52.126;5.596;2023-04-30T03:28:56;5.03;;;4.72;;
17564;SDS011;62994;52.126;5.596;2023-04-30T03:31:24;4.90;;;4.60;;
17564;SDS011;62994;52.126;5.596;2023-04-30T03:33:51;5.57;;;5.07;;
17564;SDS011;62994;52.126;5.596;2023-04-30T03:36:18;5.93;;;5.38;;
17564;SDS011;62994;52.126;5.596;2023-04-30T03:38:45;5.10;;;4.80;;
17564;SDS011;62994;52.126;5.596;2023-04-30T03:41:12;5.57;;;5.22;;
17564;SDS011;62994;52.126;5.596;2023-04-30T03:43:40;5.13;;;4.72;;
17564;SDS011;62994;52.126;5.596;2023-04-30T03:46:07;6.68;;;5.93;;
17564;SDS011;62994;52.126;5.596;2023-04-30T03:48:34;5.28;;;4.70;;
17564;SDS011;62994;52.126;5.596;2023-04-30T03:51:01;5.13;;;4.72;;
17564;SDS011;62994;52.126;5.596;2023-04-30T03:53:28;6.32;;;5.20;;
17564;SDS011;62994;52.126;5.596;2023-04-30T03:55:55;5.50;;;5.00;;
17564;SDS011;62994;52.126;5.596;2023-04-30T03:58:22;5.68;;;5.28;;
17564;SDS011;62994;52.126;5.596;2023-04-30T04:00:51;5.97;;;5.45;;
17564;SDS011;62994;52.126;5.596;2023-04-30T04:03:18;5.40;;;5.00;;
17564;SDS011;62994;52.126;5.596;2023-04-30T04:05:45;5.47;;;5.18;;
17564;SDS011;62994;52.126;5.596;2023-04-30T04:08:12;6.13;;;5.65;;
17564;SDS011;62994;52.126;5.596;2023-04-30T04:10:39;5.28;;;4.88;;
17564;SDS011;62994;52.126;5.596;2023-04-30T04:13:06;7.10;;;5.60;;
17564;SDS011;62994;52.126;5.596;2023-04-30T04:15:33;6.07;;;5.50;;
17564;SDS011;62994;52.126;5.596;2023-04-30T04:18:02;6.20;;;5.60;;
17564;SDS011;62994;52.126;5.596;2023-04-30T04:20:31;9.40;;;5.95;;
17564;SDS011;62994;52.126;5.596;2023-04-30T04:22:57;7.53;;;5.97;;
17564;SDS011;62994;52.126;5.596;2023-04-30T04:25:24;5.75;;;5.35;;
17564;SDS011;62994;52.126;5.596;2023-04-30T04:27:52;5.75;;;5.35;;
17564;SDS011;62994;52.126;5.596;2023-04-30T04:30:19;5.85;;;5.45;;
17564;SDS011;62994;52.126;5.596;2023-04-30T04:32:46;7.07;;;6.57;;
17564;SDS011;62994;52.126;5.596;2023-04-30T04:35:16;8.07;;;6.43;;
17564;SDS011;62994;52.126;5.596;2023-04-30T04:37:44;6.07;;;5.68;;
17564;SDS011;62994;52.126;5.596;2023-04-30T04:40:11;6.03;;;5.47;;
17564;SDS011;62994;52.126;5.596;2023-04-30T04:42:38;5.50;;;5.20;;
17564;SDS011;62994;52.126;5.596;2023-04-30T04:45:06;6.63;;;6.20;;
17564;SDS011;62994;52.126;5.596;2023-04-30T04:47:34;11.68;;;5.88;;
17564;SDS011;62994;52.126;5.596;2023-04-30T04:50:01;5.80;;;5.30;;
17564;SDS011;62994;52.126;5.596;2023-04-30T04:52:30;5.97;;;5.68;;
17564;SDS011;62994;52.126;5.596;2023-04-30T04:54:57;6.88;;;6.38;;
17564;SDS011;62994;52.126;5.596;2023-04-30T04:57:24;6.95;;;6.38;;
17564;SDS011;62994;52.126;5.596;2023-04-30T04:59:51;6.43;;;5.72;;
17564;SDS011;62994;52.126;5.596;2023-04-30T05:02:18;7.20;;;6.05;;
17564;SDS011;62994;52.126;5.596;2023-04-30T05:04:45;7.07;;;6.50;;
17564;SDS011;62994;52.126;5.596;2023-04-30T05:07:14;6.30;;;5.68;;
17564;SDS011;62994;52.126;5.596;2023-04-30T05:09:43;12.13;;;6.75;;
17564;SDS011;62994;52.126;5.596;2023-04-30T05:12:10;10.82;;;6.45;;
17564;SDS011;62994;52.126;5.596;2023-04-30T05:14:37;8.57;;;7.90;;
17564;SDS011;62994;52.126;5.596;2023-04-30T05:17:05;10.63;;;8.15;;
17564;SDS011;62994;52.126;5.596;2023-04-30T05:19:32;9.10;;;8.27;;
17564;SDS011;62994;52.126;5.596;2023-04-30T05:21:59;8.80;;;7.97;;
17564;SDS011;62994;52.126;5.596;2023-04-30T05:24:27;7.78;;;7.10;;
17564;SDS011;62994;52.126;5.596;2023-04-30T05:26:56;7.13;;;6.45;;
17564;SDS011;62994;52.126;5.596;2023-04-30T05:29:22;7.28;;;6.63;;
17564;SDS011;62994;52.126;5.596;2023-04-30T05:31:49;10.10;;;6.72;;
17564;SDS011;62994;52.126;5.596;2023-04-30T05:34:16;7.25;;;6.55;;
17564;SDS011;62994;52.126;5.596;2023-04-30T05:36:43;6.47;;;5.97;;
17564;SDS011;62994;52.126;5.596;2023-04-30T05:39:10;8.10;;;6.57;;
17564;SDS011;62994;52.126;5.596;2023-04-30T05:41:38;6.72;;;6.32;;
17564;SDS011;62994;52.126;5.596;2023-04-30T05:44:06;6.57;;;6.07;;
17564;SDS011;62994;52.126;5.596;2023-04-30T05:46:33;7.72;;;6.95;;
17564;SDS011;62994;52.126;5.596;2023-04-30T05:49:00;7.72;;;6.93;;
17564;SDS011;62994;52.126;5.596;2023-04-30T05:51:27;11.32;;;7.05;;
17564;SDS011;62994;52.126;5.596;2023-04-30T05:53:55;8.18;;;7.40;;
17564;SDS011;62994;52.126;5.596;2023-04-30T05:56:22;10.05;;;7.35;;
17564;SDS011;62994;52.126;5.596;2023-04-30T05:58:50;10.90;;;6.60;;
17564;SDS011;62994;52.126;5.596;2023-04-30T06:01:19;8.10;;;7.18;;
17564;SDS011;62994;52.126;5.596;2023-04-30T06:03:46;11.60;;;7.38;;
17564;SDS011;62994;52.126;5.596;2023-04-30T06:06:13;7.90;;;7.20;;
17564;SDS011;62994;52.126;5.596;2023-04-30T06:08:40;8.20;;;7.47;;
17564;SDS011;62994;52.126;5.596;2023-04-30T06:11:09;7.00;;;6.50;;
17564;SDS011;62994;52.126;5.596;2023-04-30T06:13:37;7.78;;;7.07;;
17564;SDS011;62994;52.126;5.596;2023-04-30T06:16:05;7.63;;;6.93;;
17564;SDS011;62994;52.126;5.596;2023-04-30T06:18:33;6.82;;;5.97;;
17564;SDS011;62994;52.126;5.596;2023-04-30T06:21:01;8.32;;;6.32;;
17564;SDS011;62994;52.126;5.596;2023-04-30T06:23:28;7.95;;;7.03;;
17564;SDS011;62994;52.126;5.596;2023-04-30T06:25:55;7.30;;;6.60;;
17564;SDS011;62994;52.126;5.596;2023-04-30T06:28:23;8.60;;;6.78;;
17564;SDS011;62994;52.126;5.596;2023-04-30T06:30:50;8.50;;;6.97;;
17564;SDS011;62994;52.126;5.596;2023-04-30T06:33:18;7.32;;;6.80;;
17564;SDS011;62994;52.126;5.596;2023-04-30T06:35:47;6.15;;;5.80;;
17564;SDS011;62994;52.126;5.596;2023-04-30T06:38:18;7.47;;;6.78;;
17564;SDS011;62994;52.126;5.596;2023-04-30T06:40:46;10.35;;;6.65;;
17564;SDS011;62994;52.126;5.596;2023-04-30T06:43:13;6.72;;;6.15;;
17564;SDS011;62994;52.126;5.596;2023-04-30T06:45:41;6.75;;;6.15;;
17564;SDS011;62994;52.126;5.596;2023-04-30T06:48:09;9.43;;;6.57;;
17564;SDS011;62994;52.126;5.596;2023-04-30T06:50:36;7.93;;;6.15;;
17564;SDS011;62994;52.126;5.596;2023-04-30T06:53:10;7.13;;;6.53;;
17564;SDS011;62994;52.126;5.596;2023-04-30T06:55:37;9.25;;;6.35;;
17564;SDS011;62994;52.126;5.596;2023-04-30T06:58:05;6.47;;;5.97;;
17564;SDS011;62994;52.126;5.596;2023-04-30T07:00:32;7.10;;;5.95;;
17564;SDS011;62994;52.126;5.596;2023-04-30T07:03:00;6.25;;;5.72;;
17564;SDS011;62994;52.126;5.596;2023-04-30T07:05:28;7.07;;;5.95;;
17564;SDS011;62994;52.126;5.596;2023-04-30T07:07:55;6.82;;;5.78;;
17564;SDS011;62994;52.126;5.596;2023-04-30T07:10:25;6.85;;;6.22;;
17564;SDS011;62994;52.126;5.596;2023-04-30T07:12:52;6.68;;;5.65;;
17564;SDS011;62994;52.126;5.596;2023-04-30T07:15:20;6.22;;;5.72;;
17564;SDS011;62994;52.126;5.596;2023-04-30T07:17:47;6.60;;;5.45;;
17564;SDS011;62994;52.126;5.596;2023-04-30T07:20:15;7.03;;;6.32;;
17564;SDS011;62994;52.126;5.596;2023-04-30T07:22:42;6.35;;;5.88;;
17564;SDS011;62994;52.126;5.596;2023-04-30T07:25:10;6.72;;;5.82;;
17564;SDS011;62994;52.126;5.596;2023-04-30T07:27:39;6.18;;;5.65;;
17564;SDS011;62994;52.126;5.596;2023-04-30T07:30:06;5.93;;;5.43;;
17564;SDS011;62994;52.126;5.596;2023-04-30T07:32:35;5.63;;;5.00;;
17564;SDS011;62994;52.126;5.596;2023-04-30T07:35:05;5.15;;;4.85;;
17564;SDS011;62994;52.126;5.596;2023-04-30T07:37:32;5.55;;;5.05;;
17564;SDS011;62994;52.126;5.596;2023-04-30T07:40:00;4.45;;;4.05;;
17564;SDS011;62994;52.126;5.596;2023-04-30T07:42:28;4.45;;;4.07;;
17564;SDS011;62994;52.126;5.596;2023-04-30T07:44:57;4.60;;;4.30;;
17564;SDS011;62994;52.126;5.596;2023-04-30T07:47:27;4.50;;;4.18;;
17564;SDS011;62994;52.126;5.596;2023-04-30T07:49:56;5.60;;;3.88;;
17564;SDS011;62994;52.126;5.596;2023-04-30T07:52:24;7.05;;;4.07;;
17564;SDS011;62994;52.126;5.596;2023-04-30T07:54:51;4.88;;;4.43;;
17564;SDS011;62994;52.126;5.596;2023-04-30T07:57:19;4.18;;;3.83;;
17564;SDS011;62994;52.126;5.596;2023-04-30T07:59:46;3.72;;;3.50;;
17564;SDS011;62994;52.126;5.596;2023-04-30T08:02:15;4.90;;;3.50;;
17564;SDS011;62994;52.126;5.596;2023-04-30T08:04:42;3.22;;;3.03;;
17564;SDS011;62994;52.126;5.596;2023-04-30T08:07:09;3.53;;;3.22;;
17564;SDS011;62994;52.126;5.596;2023-04-30T08:09:37;3.40;;;3.20;;
17564;SDS011;62994;52.126;5.596;2023-04-30T08:12:04;3.65;;;3.30;;
17564;SDS011;62994;52.126;5.596;2023-04-30T08:14:31;4.60;;;2.80;;
17564;SDS011;62994;52.126;5.596;2023-04-30T08:16:59;3.20;;;3.00;;
17564;SDS011;62994;52.126;5.596;2023-04-30T08:19:28;3.15;;;2.95;;
17564;SDS011;62994;52.126;5.596;2023-04-30T08:21:57;5.07;;;2.90;;
17564;SDS011;62994;52.126;5.596;2023-04-30T08:24:25;3.60;;;3.20;;
17564;SDS011;62994;52.126;5.596;2023-04-30T08:26:52;3.13;;;2.83;;
17564;SDS011;62994;52.126;5.596;2023-04-30T08:29:19;5.20;;;2.88;;
17564;SDS011;62994;52.126;5.596;2023-04-30T08:31:47;6.50;;;2.70;;
17564;SDS011;62994;52.126;5.596;2023-04-30T08:34:14;2.70;;;2.50;;
17564;SDS011;62994;52.126;5.596;2023-04-30T08:36:43;4.00;;;2.60;;
17564;SDS011;62994;52.126;5.596;2023-04-30T08:39:11;5.47;;;2.40;;
17564;SDS011;62994;52.126;5.596;2023-04-30T08:41:38;2.88;;;2.60;;
17564;SDS011;62994;52.126;5.596;2023-04-30T08:44:12;2.78;;;2.47;;
17564;SDS011;62994;52.126;5.596;2023-04-30T08:46:39;2.88;;;2.50;;
17564;SDS011;62994;52.126;5.596;2023-04-30T08:49:09;2.78;;;2.58;;
17564;SDS011;62994;52.126;5.596;2023-04-30T08:51:36;2.58;;;2.38;;
17564;SDS011;62994;52.126;5.596;2023-04-30T08:54:04;2.83;;;2.28;;
17564;SDS011;62994;52.126;5.596;2023-04-30T08:56:31;2.40;;;2.20;;
17564;SDS011;62994;52.126;5.596;2023-04-30T08:58:59;3.90;;;2.63;;
17564;SDS011;62994;52.126;5.596;2023-04-30T09:01:26;3.83;;;3.00;;
17564;SDS011;62994;52.126;5.596;2023-04-30T09:03:54;3.05;;;2.85;;
17564;SDS011;62994;52.126;5.596;2023-04-30T09:06:22;3.00;;;2.80;;
17564;SDS011;62994;52.126;5.596;2023-04-30T09:08:49;4.93;;;2.70;;
17564;SDS011;62994;52.126;5.596;2023-04-30T09:11:23;3.35;;;3.05;;
17564;SDS011;62994;52.126;5.596;2023-04-30T09:13:52;2.78;;;2.58;;
17564;SDS011;62994;52.126;5.596;2023-04-30T09:16:21;3.08;;;2.88;;
17564;SDS011;62994;52.126;5.596;2023-04-30T09:18:49;2.85;;;2.65;;
17564;SDS011;62994;52.126;5.596;2023-04-30T09:21:16;4.90;;;2.90;;
17564;SDS011;62994;52.126;5.596;2023-04-30T09:23:55;2.78;;;2.58;;
17564;SDS011;62994;52.126;5.596;2023-04-30T09:26:29;3.22;;;2.92;;
17564;SDS011;62994;52.126;5.596;2023-04-30T09:28:57;4.07;;;2.58;;
17564;SDS011;62994;52.126;5.596;2023-04-30T09:31:25;2.75;;;2.55;;
17564;SDS011;62994;52.126;5.596;2023-04-30T09:33:53;3.00;;;2.70;;
17564;SDS011;62994;52.126;5.596;2023-04-30T09:36:21;2.65;;;2.45;;
17564;SDS011;62994;52.126;5.596;2023-04-30T09:38:47;2.88;;;2.63;;
17564;SDS011;62994;52.126;5.596;2023-04-30T09:41:21;3.72;;;2.40;;
17564;SDS011;62994;52.126;5.596;2023-04-30T09:43:51;4.63;;;2.78;;
17564;SDS011;62994;52.126;5.596;2023-04-30T09:46:19;2.47;;;1.90;;
17564;SDS011;62994;52.126;5.596;2023-04-30T09:48:48;3.25;;;2.65;;
17564;SDS011;62994;52.126;5.596;2023-04-30T09:51:22;2.65;;;2.45;;
17564;SDS011;62994;52.126;5.596;2023-04-30T09:53:51;3.38;;;2.50;;
17564;SDS011;62994;52.126;5.596;2023-04-30T09:56:19;2.72;;;2.17;;
17564;SDS011;62994;52.126;5.596;2023-04-30T09:58:49;2.03;;;1.83;;
17564;SDS011;62994;52.126;5.596;2023-04-30T10:01:19;2.05;;;1.95;;
17564;SDS011;62994;52.126;5.596;2023-04-30T10:03:46;2.67;;;2.47;;
17564;SDS011;62994;52.126;5.596;2023-04-30T10:06:14;2.53;;;2.30;;
17564;SDS011;62994;52.126;5.596;2023-04-30T10:08:45;2.60;;;2.25;;
17564;SDS011;62994;52.126;5.596;2023-04-30T10:11:14;3.17;;;2.40;;
17564;SDS011;62994;52.126;5.596;2023-04-30T10:13:45;2.03;;;1.92;;
17564;SDS011;62994;52.126;5.596;2023-04-30T10:16:22;1.75;;;1.65;;
17564;SDS011;62994;52.126;5.596;2023-04-30T10:18:56;2.17;;;2.00;;
17564;SDS011;62994;52.126;5.596;2023-04-30T10:21:28;2.35;;;2.25;;
17564;SDS011;62994;52.126;5.596;2023-04-30T10:23:56;2.00;;;1.90;;
17564;SDS011;62994;52.126;5.596;2023-04-30T10:26:23;2.20;;;2.10;;
17564;SDS011;62994;52.126;5.596;2023-04-30T10:28:51;4.00;;;2.17;;
17564;SDS011;62994;52.126;5.596;2023-04-30T10:31:21;2.50;;;2.30;;
17564;SDS011;62994;52.126;5.596;2023-04-30T10:33:52;2.10;;;2.00;;
17564;SDS011;62994;52.126;5.596;2023-04-30T10:36:38;2.10;;;1.90;;
17564;SDS011;62994;52.126;5.596;2023-04-30T10:39:08;2.50;;;2.30;;
17564;SDS011;62994;52.126;5.596;2023-04-30T10:41:36;2.25;;;2.05;;
17564;SDS011;62994;52.126;5.596;2023-04-30T10:44:04;1.95;;;1.83;;
17564;SDS011;62994;52.126;5.596;2023-04-30T10:46:34;2.60;;;2.40;;
17564;SDS011;62994;52.126;5.596;2023-04-30T10:49:02;3.60;;;2.20;;
17564;SDS011;62994;52.126;5.596;2023-04-30T10:51:48;2.72;;;2.53;;
17564;SDS011;62994;52.126;5.596;2023-04-30T10:54:21;2.25;;;2.15;;
17564;SDS011;62994;52.126;5.596;2023-04-30T10:56:51;2.45;;;2.35;;
17564;SDS011;62994;52.126;5.596;2023-04-30T10:59:20;2.10;;;2.00;;
17564;SDS011;62994;52.126;5.596;2023-04-30T11:01:55;2.17;;;2.08;;
17564;SDS011;62994;52.126;5.596;2023-04-30T11:04:24;2.25;;;2.13;;
17564;SDS011;62994;52.126;5.596;2023-04-30T11:09:40;3.95;;;2.50;;
17564;SDS011;62994;52.126;5.596;2023-04-30T11:12:10;3.17;;;2.08;;
17564;SDS011;62994;52.126;5.596;2023-04-30T11:14:39;2.72;;;2.53;;
17564;SDS011;62994;52.126;5.596;2023-04-30T11:17:09;2.22;;;2.10;;
17564;SDS011;62994;52.126;5.596;2023-04-30T11:19:47;2.40;;;2.30;;
17564;SDS011;62994;52.126;5.596;2023-04-30T11:22:18;2.53;;;2.33;;
17564;SDS011;62994;52.126;5.596;2023-04-30T11:24:48;2.20;;;2.08;;
17564;SDS011;62994;52.126;5.596;2023-04-30T11:27:18;2.17;;;2.08;;
17564;SDS011;62994;52.126;5.596;2023-04-30T11:29:46;2.30;;;2.20;;
17564;SDS011;62994;52.126;5.596;2023-04-30T11:32:15;3.15;;;2.35;;
17564;SDS011;62994;52.126;5.596;2023-04-30T11:34:43;2.38;;;2.28;;
17564;SDS011;62994;52.126;5.596;2023-04-30T11:37:11;2.30;;;2.10;;
17564;SDS011;62994;52.126;5.596;2023-04-30T11:39:39;2.28;;;2.10;;
17564;SDS011;62994;52.126;5.596;2023-04-30T11:42:07;2.20;;;2.10;;
17564;SDS011;62994;52.126;5.596;2023-04-30T11:44:35;2.17;;;2.08;;
17564;SDS011;62994;52.126;5.596;2023-04-30T11:47:02;1.90;;;1.80;;
17564;SDS011;62994;52.126;5.596;2023-04-30T11:49:31;2.65;;;2.45;;
17564;SDS011;62994;52.126;5.596;2023-04-30T11:51:59;2.65;;;2.25;;
17564;SDS011;62994;52.126;5.596;2023-04-30T11:54:26;1.70;;;1.60;;
17564;SDS011;62994;52.126;5.596;2023-04-30T11:56:56;2.30;;;2.10;;
17564;SDS011;62994;52.126;5.596;2023-04-30T11:59:28;3.20;;;2.30;;
17564;SDS011;62994;52.126;5.596;2023-04-30T12:01:55;2.03;;;1.92;;
17564;SDS011;62994;52.126;5.596;2023-04-30T12:04:22;2.22;;;2.10;;
17564;SDS011;62994;52.126;5.596;2023-04-30T12:06:51;2.60;;;2.40;;
17564;SDS011;62994;52.126;5.596;2023-04-30T12:09:18;2.13;;;2.03;;
17564;SDS011;62994;52.126;5.596;2023-04-30T12:11:45;1.80;;;1.70;;
17564;SDS011;62994;52.126;5.596;2023-04-30T12:14:13;2.10;;;1.80;;
17564;SDS011;62994;52.126;5.596;2023-04-30T12:16:41;1.92;;;1.83;;
17564;SDS011;62994;52.126;5.596;2023-04-30T12:19:13;2.10;;;1.90;;
17564;SDS011;62994;52.126;5.596;2023-04-30T12:21:41;1.90;;;1.80;;
17564;SDS011;62994;52.126;5.596;2023-04-30T12:24:12;1.58;;;1.48;;
17564;SDS011;62994;52.126;5.596;2023-04-30T12:26:40;2.20;;;2.10;;
17564;SDS011;62994;52.126;5.596;2023-04-30T12:29:08;1.60;;;1.50;;
17564;SDS011;62994;52.126;5.596;2023-04-30T12:31:36;1.60;;;1.50;;
17564;SDS011;62994;52.126;5.596;2023-04-30T12:34:04;1.67;;;1.58;;
17564;SDS011;62994;52.126;5.596;2023-04-30T12:36:31;1.90;;;1.80;;
17564;SDS011;62994;52.126;5.596;2023-04-30T12:39:07;1.80;;;1.63;;
17564;SDS011;62994;52.126;5.596;2023-04-30T12:41:39;2.20;;;2.00;;
17564;SDS011;62994;52.126;5.596;2023-04-30T12:44:14;1.50;;;1.50;;
17564;SDS011;62994;52.126;5.596;2023-04-30T12:46:42;1.50;;;1.40;;
17564;SDS011;62994;52.126;5.596;2023-04-30T12:49:10;1.30;;;1.30;;
17564;SDS011;62994;52.126;5.596;2023-04-30T12:51:38;1.05;;;1.05;;
17564;SDS011;62994;52.126;5.596;2023-04-30T12:54:08;1.55;;;1.45;;
17564;SDS011;62994;52.126;5.596;2023-04-30T12:56:35;1.20;;;1.20;;
17564;SDS011;62994;52.126;5.596;2023-04-30T12:59:13;1.33;;;1.23;;
17564;SDS011;62994;52.126;5.596;2023-04-30T13:01:43;1.30;;;1.30;;
17564;SDS011;62994;52.126;5.596;2023-04-30T13:04:11;1.55;;;1.20;;
17564;SDS011;62994;52.126;5.596;2023-04-30T13:06:38;1.67;;;1.58;;
17564;SDS011;62994;52.126;5.596;2023-04-30T13:09:05;1.42;;;1.33;;
17564;SDS011;62994;52.126;5.596;2023-04-30T13:11:32;1.35;;;1.25;;
17564;SDS011;62994;52.126;5.596;2023-04-30T13:13:58;1.55;;;1.15;;
17564;SDS011;62994;52.126;5.596;2023-04-30T13:16:27;1.50;;;1.40;;
17564;SDS011;62994;52.126;5.596;2023-04-30T13:18:54;1.50;;;1.40;;
17564;SDS011;62994;52.126;5.596;2023-04-30T13:21:23;3.30;;;1.63;;
17564;SDS011;62994;52.126;5.596;2023-04-30T13:23:51;1.55;;;1.35;;
17564;SDS011;62994;52.126;5.596;2023-04-30T13:26:18;1.50;;;1.02;;
17564;SDS011;62994;52.126;5.596;2023-04-30T13:28:45;1.38;;;1.35;;
17564;SDS011;62994;52.126;5.596;2023-04-30T13:31:12;1.95;;;1.42;;
17564;SDS011;62994;52.126;5.596;2023-04-30T13:33:41;0.95;;;0.95;;
17564;SDS011;62994;52.126;5.596;2023-04-30T13:36:08;1.10;;;1.10;;
17564;SDS011;62994;52.126;5.596;2023-04-30T13:38:36;1.48;;;1.30;;
17564;SDS011;62994;52.126;5.596;2023-04-30T13:41:04;2.63;;;1.30;;
17564;SDS011;62994;52.126;5.596;2023-04-30T13:43:31;1.10;;;0.98;;
17564;SDS011;62994;52.126;5.596;2023-04-30T13:45:59;1.50;;;1.40;;
17564;SDS011;62994;52.126;5.596;2023-04-30T13:48:26;1.30;;;1.20;;
17564;SDS011;62994;52.126;5.596;2023-04-30T13:50:54;2.83;;;1.30;;
17564;SDS011;62994;52.126;5.596;2023-04-30T13:53:22;1.13;;;1.02;;
17564;SDS011;62994;52.126;5.596;2023-04-30T13:55:49;1.15;;;1.05;;
17564;SDS011;62994;52.126;5.596;2023-04-30T13:58:17;1.15;;;1.05;;
17564;SDS011;62994;52.126;5.596;2023-04-30T14:00:44;1.23;;;1.13;;
17564;SDS011;62994;52.126;5.596;2023-04-30T14:03:11;1.73;;;0.55;;
17564;SDS011;62994;52.126;5.596;2023-04-30T14:05:39;2.42;;;0.73;;
17564;SDS011;62994;52.126;5.596;2023-04-30T14:08:08;0.85;;;0.85;;
17564;SDS011;62994;52.126;5.596;2023-04-30T14:10:36;0.95;;;0.95;;
17564;SDS011;62994;52.126;5.596;2023-04-30T14:13:04;2.03;;;0.80;;
17564;SDS011;62994;52.126;5.596;2023-04-30T14:15:36;0.60;;;0.60;;
17564;SDS011;62994;52.126;5.596;2023-04-30T14:18:06;1.48;;;0.85;;
17564;SDS011;62994;52.126;5.596;2023-04-30T14:20:35;2.58;;;0.85;;
17564;SDS011;62994;52.126;5.596;2023-04-30T14:23:02;1.10;;;0.95;;
17564;SDS011;62994;52.126;5.596;2023-04-30T14:25:30;0.90;;;0.90;;
17564;SDS011;62994;52.126;5.596;2023-04-30T14:27:58;4.30;;;0.93;;
17564;SDS011;62994;52.126;5.596;2023-04-30T14:30:25;0.98;;;0.85;;
17564;SDS011;62994;52.126;5.596;2023-04-30T14:32:52;1.92;;;0.93;;
17564;SDS011;62994;52.126;5.596;2023-04-30T14:35:20;0.98;;;0.98;;
17564;SDS011;62994;52.126;5.596;2023-04-30T14:37:47;1.23;;;0.70;;
17564;SDS011;62994;52.126;5.596;2023-04-30T14:40:14;1.08;;;1.00;;
17564;SDS011;62994;52.126;5.596;2023-04-30T14:42:42;0.93;;;0.93;;
17564;SDS011;62994;52.126;5.596;2023-04-30T14:45:09;0.75;;;0.73;;
17564;SDS011;62994;52.126;5.596;2023-04-30T14:47:37;1.10;;;1.10;;
17564;SDS011;62994;52.126;5.596;2023-04-30T14:50:05;0.88;;;0.88;;
17564;SDS011;62994;52.126;5.596;2023-04-30T14:52:32;3.47;;;0.90;;
17564;SDS011;62994;52.126;5.596;2023-04-30T14:54:59;0.73;;;0.70;;
17564;SDS011;62994;52.126;5.596;2023-04-30T14:57:27;0.55;;;0.55;;
17564;SDS011;62994;52.126;5.596;2023-04-30T14:59:56;1.27;;;0.82;;
17564;SDS011;62994;52.126;5.596;2023-04-30T15:02:24;0.70;;;0.70;;